KRNT - Renton, Washington, USA
Distance from station: W 21mi, 33km
Updated: Mon, 15-Jul-2024 5:53pm PDT

 Wind from NW
Wind: NW 6 mph , 9 km/h
Temperature: 79°F , 26°C
Dew Point: 55°F , 13°C
Humidity: 45%
Barometer: 30.05 inHg , 1017.6 hPa
Visibility: 10 miles , 16 km
2024/07/16 00:53 KRNT 160053Z AUTO 32005KT 10SM CLR 26/13 A3005 RMK AO2 SLP179 T02610133
KBFI - Seattle/Boeing, Washington, USA
Distance from station: W 25mi, 41km
Updated: Mon, 15-Jul-2024 5:53pm PDT

 Wind from WNW
Wind: WNW 6 mph , 9 km/h
Temperature: 81°F , 27°C
Heat Index: 81°F , 27°C
Dew Point: 55°F , 13°C
Humidity: 42%
Barometer: 30.05 inHg , 1017.6 hPa
Visibility: 10 miles , 16 km
2024/07/16 00:53 KBFI 160053Z 30005KT 10SM CLR 27/13 A3005 RMK AO2 SLP174 T02670128
 
KSEA - Seattle/Metro, Washington, USA
Distance from station: W 25mi, 41km
Updated: Mon, 15-Jul-2024 5:53pm PDT

 Wind from NW
Wind: NW 7 mph , 11 km/h
Temperature: 79°F , 26°C
Dew Point: 54°F , 12°C
Humidity: 42%
Barometer: 30.07 inHg , 1018.3 hPa
Visibility: 10 miles , 16 km
Cloud details: 25000 ft
2024/07/16 00:53 KSEA 160053Z 32006KT 10SM FEW250 26/12 A3007 RMK AO2 SLP186 T02610117
KSMP - Stampede Pass, Washington, USA
Distance from station: SE 26mi, 41km
Updated: Mon, 15-Jul-2024 5:56pm PDT

 
Temperature: 70°F , 21°C
Dew Point: 48°F , 9°C
Humidity: 46%
Barometer: 30.16 inHg , 1021.3 hPa
Visibility: 10 miles , 16 km
2024/07/16 00:56 KSMP 160056Z AUTO 10SM CLR 21/09 A3016 RMK AO2 SLP192 T02110089 $
 
KPLU - Puyallup/Thun, Washington, USA
Distance from station: SW 36mi, 59km
Updated: Mon, 15-Jul-2024 5:55pm PDT

 Wind from calm
Wind: Calm
Temperature: 81°F , 27°C
Dew Point: 54°F , 12°C
Humidity: 39%
Barometer: 30.07 inHg , 1018.3 hPa
Visibility: 9 miles , 14 km
2024/07/16 00:55 KPLU 160055Z AUTO 00000KT 9SM CLR 27/12 A3007 RMK AO2
KPAE - Everett, Washington, USA
Distance from station: NW 37mi, 60km
Updated: Mon, 15-Jul-2024 5:53pm PDT

 Wind from calm
Wind: Calm
Temperature: 79°F , 26°C
Dew Point: 55°F , 13°C
Humidity: 45%
Barometer: 30.08 inHg , 1018.6 hPa
Visibility: 10 miles , 16 km
2024/07/16 00:53 KPAE 160053Z 00000KT 10SM CLR 26/13 A3008 RMK AO2 SLP183 T02560133
 
KTIW - Tacoma, Washington, USA
Distance from station: WSW 41mi, 66km
Updated: Mon, 15-Jul-2024 5:53pm PDT

 Wind from SSE
Wind: SSE 3 mph , 6 km/h
Temperature: 79°F , 26°C
Dew Point: 55°F , 13°C
Humidity: 45%
Barometer: 30.06 inHg , 1017.9 hPa
Visibility: 10 miles , 16 km
2024/07/16 00:53 KTIW 160053Z 16003KT 10SM CLR 26/13 A3006 RMK AO2 SLP176 T02560128
KTCM - Tacoma/Mc Chord, Washington, USA
Distance from station: SW 42mi, 67km
Updated: Mon, 15-Jul-2024 5:55pm PDT

 Wind from calm
Wind: Calm
Temperature: 79°F , 26°C
Dew Point: 54°F , 12°C
Humidity: 42%
Barometer: 30.05 inHg , 1017.6 hPa
Visibility: 10 miles , 16 km
2024/07/16 00:55 KTCM 160055Z AUTO 00000KT 10SM CLR 26/12 A3005 RMK AO2 SLP178 T02630123 $
 
KPWT - Bremerton Ntnl, Washington, USA
Distance from station: W 45mi, 73km
Updated: Mon, 15-Jul-2024 5:56pm PDT

 Wind from ENE
Wind: ENE 8 mph , 13 km/h
Temperature: 81°F , 27°C
Heat Index: 81°F , 27°C
Dew Point: 59°F , 15°C
Humidity: 48%
Barometer: 30.06 inHg , 1017.9 hPa
Visibility: 10 miles , 16 km
2024/07/16 00:56 KPWT 160056Z AUTO 06007KT 10SM CLR 27/15 A3006 RMK AO2 SLP181 T02670150
KGRF - Fort Lewis/Gray, Washington, USA
Distance from station: SW 48mi, 77km
Updated: Mon, 15-Jul-2024 5:55pm PDT

 Wind from W
Wind: W 8 mph , 13 km/h
Temperature: 81°F , 27°C
Dew Point: 52°F , 11°C
Humidity: 37%
Barometer: 30.03 inHg , 1016.9 hPa
Visibility: 10 miles , 16 km
2024/07/16 00:55 KGRF 160055Z AUTO 28007KT 10SM CLR 27/11 A3003 RMK AO2 SLP171 T02670112 $
 
KAWO - Arlington Muni, Washington, USA
Distance from station: NNW 50mi, 80km
Updated: Mon, 15-Jul-2024 9:29am PDT
NOT Current

 Wind from SE
Wind: SE 6 mph , 9 km/h
Temperature: 61°F , 16°C
Dew Point: 55°F , 13°C
Humidity: 83%
Barometer: 30.16 inHg , 1021.3 hPa
Visibility: 10 miles , 16 km
Cloud details: 1000 ft
2024/07/15 16:29 KAWO 151629Z AUTO 13005KT 10SM OVC010 16/13 A3016 RMK AO2